Suzun, Russia
Current Conditions -  °F | °C
As of 2:30 AM on Monday 24 Nov 2014 (Local Time) from UNBB Reporting Station
Light Snow Light Snow  
Wind Chill: 14°   Ceiling: 1200
Heat Index: 27°   Visibility: 6mi
Dew Point: 23°   Wind: 18mph
Humidity: 86%   Direction: 220°SW
Pressure: 29.59"   Gusts: NA
Location:  53.79°N, 82.31°E
Report Text: UNBB 231930Z 22008MPS 9000 -SN DRSN BKN012 M03/M05 Q1002 NOSIGRMK QFE729/0972 24800550
Loading
Personal Weather Stations






























Interactive Weather Map New forecast layout! Learn more

10-Day Weather Forecast

Advertisements
Track Severe Weather on mobile